Stella Polaris — PEBD — position and weather

sailwx.info

Track history (hours):
 
Tides and Currents Weather Stations Pressure Air Temp Water Temp Dewpoint Dewpoint Depression Visibility Wind Speed Wind Dir Waves Ship Positions

Stella Polaris

Last reported at 2014-Jul-30 07:33 UTC. Time now 2014-Jul-31 15:33 UTC.
Position N 50°19' W 001°09'.

Length 629 m; draft 7.8 m.

Type: Ship (hazmat cat A). MMSI: 245911000.

Date/timePositionNaut miles runAvg speedWind from/ knotsBaromVisibWave heightAir tempDewpointWater temp
2014-Jul-30 07:33N 50°19' W 001°09'5814.5
2014-Jul-30 03:33N 50°35' E 000°18'1413.9
2014-Jul-30 02:33N 50°40' E 000°39'2612.3
2014-Jul-30 00:24N 50°56' E 001°12'1011.9
2014-Jul-29 23:33N 51°02' E 001°24'1414.4
2014-Jul-29 22:33N 51°12' E 001°42'1615.7
2014-Jul-29 21:33N 51°24' E 001°58'1313.2
2014-Jul-29 20:33N 51°21' E 002°19'1514.5
2014-Jul-29 19:32N 51°22' E 002°42'1313.0
2014-Jul-29 18:32N 51°24' E 003°03'1514.4
2014-Jul-29 17:31N 51°25' E 003°26'1110.9
2014-Jul-29 16:33N 51°23' E 003°43'6 5.8
2014-Jul-29 15:33N 51°19' E 003°49'5 4.6
2014-Jul-29 14:32N 51°15' E 003°49'2 1.0
2014-Jul-29 12:13N 51°12' E 003°48'0 0.0
2014-Jul-29 09:30N 51°12' E 003°48'0 0.0
2014-Jul-29 06:28N 51°12' E 003°48'0 0.0
2014-Jul-29 03:27N 51°12' E 003°48'0 0.0
2014-Jul-29 02:27N 51°12' E 003°48'0 0.0
2014-Jul-29 00:32N 51°12' E 003°48'0 0.0
2014-Jul-28 22:07N 51°12' E 003°48'0 0.0
2014-Jul-28 20:27N 51°12' E 003°48'0 0.0
2014-Jul-28 15:04N 51°12' E 003°48'0 0.0
2014-Jul-28 14:09N 51°12' E 003°48'0 0.0
2014-Jul-28 12:27N 51°12' E 003°48'0 0.0
2014-Jul-28 11:31N 51°12' E 003°48'0 0.0
2014-Jul-28 10:33N 51°12' E 003°48'0 0.0
2014-Jul-28 09:31N 51°12' E 003°48'0 0.0
2014-Jul-28 08:34N 51°12' E 003°48'0 0.0
2014-Jul-28 07:33N 51°12' E 003°48'0 0.0
2014-Jul-28 06:33N 51°12' E 003°48'0 0.0
2014-Jul-28 05:23N 51°12' E 003°48'0 0.0
2014-Jul-28 04:32N 51°12' E 003°48'0 0.0
2014-Jul-28 03:31N 51°12' E 003°48'0 0.0
2014-Jul-28 02:31N 51°12' E 003°48'0 0.0
2014-Jul-28 01:33N 51°12' E 003°48'3 2.9
2014-Jul-28 00:33N 51°15' E 003°49'5 4.6
2014-Jul-27 23:33N 51°20' E 003°49'6 5.6
2014-Jul-27 22:33N 51°24' E 003°43'9 8.7
2014-Jul-27 21:33N 51°28' E 003°31'1311.1
2014-Jul-27 20:24N 51°39' E 003°19'8 9.2
2014-Jul-27 19:33N 51°46' E 003°13'1413.8
2014-Jul-27 18:32N 51°59' E 003°19'1613.2
2014-Jul-27 17:19N 52°15' E 003°24'40412.6
2014-Jul-26 09:18N 57°47' E 010°06'1013.6
2014-Jul-26 08:33N 57°49' E 010°25'1312.6
2014-Jul-26 07:34N 57°47' E 010°48'1413.4
2014-Jul-26 06:30N 57°37' E 011°08'1010.6
2014-Jul-26 05:33N 57°30' E 011°21'1313.4
2014-Jul-26 04:33N 57°19' E 011°32'1313.2
2014-Jul-26 03:33N 57°06' E 011°40'1513.5
2014-Jul-26 02:26N 56°52' E 011°50'1112.5
2014-Jul-26 01:32N 56°41' E 011°49'1413.6
2014-Jul-26 00:32N 56°29' E 011°36'1313.5
2014-Jul-25 23:32N 56°17' E 011°24'1313.2
2014-Jul-25 22:33N 56°07' E 011°10'1313.3
2014-Jul-25 21:33N 55°55' E 010°58'7512.3
2014-Jul-25 15:27N 54°40' E 010°58'1214.0
2014-Jul-25 14:34N 54°35' E 011°16'1413.7
2014-Jul-25 13:33N 54°29' E 011°38'1313.0
2014-Jul-25 12:33N 54°26' E 011°60'1211.9
2014-Jul-25 11:33N 54°35' E 012°14'1313.1
2014-Jul-25 10:33N 54°43' E 012°31'1312.7
2014-Jul-25 09:33N 54°49' E 012°51'1413.2
2014-Jul-25 08:31N 54°54' E 013°13'1313.4
2014-Jul-25 07:33N 54°58' E 013°35'1313.4
2014-Jul-25 06:33N 55°02' E 013°57'1313.2
2014-Jul-25 05:33N 55°11' E 014°14'1413.6
2014-Jul-25 04:33N 55°21' E 014°30'1313.4
2014-Jul-25 03:33N 55°30' E 014°48'1313.5
2014-Jul-25 02:33N 55°37' E 015°08'1413.6
2014-Jul-25 01:33N 55°43' E 015°29'1413.6
2014-Jul-25 00:33N 55°50' E 015°50'1413.8
2014-Jul-24 23:34N 55°57' E 016°12'1413.7
2014-Jul-24 22:34N 56°04' E 016°33'1413.6
2014-Jul-24 21:33N 56°12' E 016°53'1413.5
2014-Jul-24 20:33N 56°20' E 017°12'1413.4
2014-Jul-24 19:32N 56°28' E 017°32'1313.4
2014-Jul-24 18:33N 56°36' E 017°51'1313.5
2014-Jul-24 17:33N 56°44' E 018°10'1313.4
2014-Jul-24 16:33N 56°53' E 018°29'1413.5
2014-Jul-24 15:34N 57°04' E 018°45'1413.6
2014-Jul-24 14:33N 57°14' E 019°00'1413.6
2014-Jul-24 13:33N 57°25' E 019°16'1413.4
2014-Jul-24 12:33N 57°35' E 019°32'1313.4
2014-Jul-24 11:33N 57°46' E 019°48'9713.6
2014-Jul-24 04:24N 59°05' E 021°34'1413.1
2014-Jul-24 03:21N 59°15' E 021°53'3913.0
2014-Jul-24 00:23N 59°34' E 022°58'1213.8
2014-Jul-23 23:30N 59°38' E 023°21'1413.6
2014-Jul-23 22:30N 59°41' E 023°47'7813.0
2014-Jul-23 16:27N 60°06' E 026°16'1112.4
2014-Jul-23 15:33N 60°15' E 026°28'1212.5
2014-Jul-23 14:33N 60°23' E 026°48'5 4.6
2014-Jul-23 13:33N 60°26' E 026°55'0 0.0
2014-Jul-23 12:33N 60°26' E 026°55'0 0.0
2014-Jul-23 11:32N 60°26' E 026°55'0 0.0
2014-Jul-23 10:32N 60°26' E 026°55'0 0.0
2014-Jul-23 09:32N 60°26' E 026°55'0 0.0
2014-Jul-23 08:31N 60°26' E 026°55'0 0.0
2014-Jul-23 07:31N 60°26' E 026°55'0 0.0
2014-Jul-23 06:33N 60°26' E 026°55'0 0.0
2014-Jul-23 05:33N 60°26' E 026°55'0 0.0
2014-Jul-23 04:32N 60°26' E 026°55'0 0.0
2014-Jul-23 03:32N 60°26' E 026°55'0 0.0
2014-Jul-23 02:32N 60°26' E 026°55'0 0.0
2014-Jul-23 01:31N 60°26' E 026°55'0 0.0
2014-Jul-23 00:31N 60°26' E 026°55'0 0.0
2014-Jul-22 23:33N 60°26' E 026°55'0 0.0
2014-Jul-22 22:33N 60°26' E 026°55'0 0.0
2014-Jul-22 21:32N 60°26' E 026°55'0 0.0
2014-Jul-22 20:32N 60°26' E 026°55'0 0.0
2014-Jul-22 19:32N 60°26' E 026°55'0 0.0
2014-Jul-22 18:31N 60°26' E 026°55'0 0.0
2014-Jul-22 17:31N 60°26' E 026°55'0 0.0
2014-Jul-22 16:33N 60°26' E 026°55'0 0.0
2014-Jul-22 15:33N 60°26' E 026°55'0 0.0
2014-Jul-22 14:32N 60°26' E 026°55'0 0.0
2014-Jul-22 13:32N 60°26' E 026°55'0 0.0
2014-Jul-22 12:32N 60°26' E 026°55'0 0.0
2014-Jul-22 11:31N 60°26' E 026°55'0 0.0
2014-Jul-22 10:31N 60°26' E 026°55'0 0.0
2014-Jul-22 09:33N 60°26' E 026°55'0 0.0
2014-Jul-22 08:30N 60°26' E 026°55'0 0.0
2014-Jul-22 07:32N 60°26' E 026°55'0 0.0
2014-Jul-22 06:32N 60°26' E 026°55'0 0.0
2014-Jul-22 05:28N 60°26' E 026°55'0 0.0
2014-Jul-22 04:31N 60°26' E 026°55'0 0.0
2014-Jul-22 03:31N 60°26' E 026°55'0 0.0
2014-Jul-22 02:33N 60°26' E 026°55'0 0.0
2014-Jul-22 01:33N 60°26' E 026°55'0 0.0
2014-Jul-22 00:32N 60°26' E 026°55'0 0.0
2014-Jul-21 23:32N 60°26' E 026°55'5 4.9
2014-Jul-21 22:34N 60°23' E 026°47'1414.1
2014-Jul-21 21:33N 60°14' E 026°25'2313.4
2014-Jul-21 19:51N 59°54' E 026°03'6614.3
2014-Jul-21 15:14N 59°38' E 023°55'2313.9
2014-Jul-21 13:33N 59°31' E 023°12'1513.8
2014-Jul-21 12:30N 59°26' E 022°44'1313.9
2014-Jul-21 11:33N 59°22' E 022°20'1813.9
2014-Jul-21 10:16N 59°26' E 021°46'1014.0
2014-Jul-21 09:34N 59°30' E 021°28'1814.1
2014-Jul-21 08:15N 59°36' E 020°53'1014.0
2014-Jul-21 07:33N 59°39' E 020°35'  
Track history (hours):
 
Tides and Currents Weather Stations Pressure Air Temp Water Temp Dewpoint Dewpoint Depression Visibility Wind Speed Wind Dir Waves Ship Positions

Stella Polaris

Last reported at 2014-Jul-30 07:33 UTC. Time now 2014-Jul-31 15:33 UTC.
Position N 50°19' W 001°09'.

Length 629 m; draft 7.8 m.

Type: Ship (hazmat cat A). MMSI: 245911000.

Date/timePositionNaut miles runAvg speedWind from/ knotsBaromVisibWave heightAir tempDewpointWater temp
2014-Jul-30 07:33N 50°19' W 001°09'5814.5
2014-Jul-30 03:33N 50°35' E 000°18'1413.9
2014-Jul-30 02:33N 50°40' E 000°39'2612.3
2014-Jul-30 00:24N 50°56' E 001°12'1011.9
2014-Jul-29 23:33N 51°02' E 001°24'1414.4
2014-Jul-29 22:33N 51°12' E 001°42'1615.7
2014-Jul-29 21:33N 51°24' E 001°58'1313.2
2014-Jul-29 20:33N 51°21' E 002°19'1514.5
2014-Jul-29 19:32N 51°22' E 002°42'1313.0
2014-Jul-29 18:32N 51°24' E 003°03'1514.4
2014-Jul-29 17:31N 51°25' E 003°26'1110.9
2014-Jul-29 16:33N 51°23' E 003°43'6 5.8
2014-Jul-29 15:33N 51°19' E 003°49'5 4.6
2014-Jul-29 14:32N 51°15' E 003°49'2 1.0
2014-Jul-29 12:13N 51°12' E 003°48'0 0.0
2014-Jul-29 09:30N 51°12' E 003°48'0 0.0
2014-Jul-29 06:28N 51°12' E 003°48'0 0.0
2014-Jul-29 03:27N 51°12' E 003°48'0 0.0
2014-Jul-29 02:27N 51°12' E 003°48'0 0.0
2014-Jul-29 00:32N 51°12' E 003°48'0 0.0
2014-Jul-28 22:07N 51°12' E 003°48'0 0.0
2014-Jul-28 20:27N 51°12' E 003°48'0 0.0
2014-Jul-28 15:04N 51°12' E 003°48'0 0.0
2014-Jul-28 14:09N 51°12' E 003°48'0 0.0
2014-Jul-28 12:27N 51°12' E 003°48'0 0.0
2014-Jul-28 11:31N 51°12' E 003°48'0 0.0
2014-Jul-28 10:33N 51°12' E 003°48'0 0.0
2014-Jul-28 09:31N 51°12' E 003°48'0 0.0
2014-Jul-28 08:34N 51°12' E 003°48'0 0.0
2014-Jul-28 07:33N 51°12' E 003°48'0 0.0
2014-Jul-28 06:33N 51°12' E 003°48'0 0.0
2014-Jul-28 05:23N 51°12' E 003°48'0 0.0
2014-Jul-28 04:32N 51°12' E 003°48'0 0.0
2014-Jul-28 03:31N 51°12' E 003°48'0 0.0
2014-Jul-28 02:31N 51°12' E 003°48'0 0.0
2014-Jul-28 01:33N 51°12' E 003°48'3 2.9
2014-Jul-28 00:33N 51°15' E 003°49'5 4.6
2014-Jul-27 23:33N 51°20' E 003°49'6 5.6
2014-Jul-27 22:33N 51°24' E 003°43'9 8.7
2014-Jul-27 21:33N 51°28' E 003°31'1311.1
2014-Jul-27 20:24N 51°39' E 003°19'8 9.2
2014-Jul-27 19:33N 51°46' E 003°13'1413.8
2014-Jul-27 18:32N 51°59' E 003°19'1613.2
2014-Jul-27 17:19N 52°15' E 003°24'40412.6
2014-Jul-26 09:18N 57°47' E 010°06'1013.6
2014-Jul-26 08:33N 57°49' E 010°25'1312.6
2014-Jul-26 07:34N 57°47' E 010°48'1413.4
2014-Jul-26 06:30N 57°37' E 011°08'1010.6
2014-Jul-26 05:33N 57°30' E 011°21'1313.4
2014-Jul-26 04:33N 57°19' E 011°32'1313.2
2014-Jul-26 03:33N 57°06' E 011°40'1513.5
2014-Jul-26 02:26N 56°52' E 011°50'1112.5
2014-Jul-26 01:32N 56°41' E 011°49'1413.6
2014-Jul-26 00:32N 56°29' E 011°36'1313.5
2014-Jul-25 23:32N 56°17' E 011°24'1313.2
2014-Jul-25 22:33N 56°07' E 011°10'1313.3
2014-Jul-25 21:33N 55°55' E 010°58'7512.3
2014-Jul-25 15:27N 54°40' E 010°58'1214.0
2014-Jul-25 14:34N 54°35' E 011°16'1413.7
2014-Jul-25 13:33N 54°29' E 011°38'1313.0
2014-Jul-25 12:33N 54°26' E 011°60'1211.9
2014-Jul-25 11:33N 54°35' E 012°14'1313.1
2014-Jul-25 10:33N 54°43' E 012°31'1312.7
2014-Jul-25 09:33N 54°49' E 012°51'1413.2
2014-Jul-25 08:31N 54°54' E 013°13'1313.4
2014-Jul-25 07:33N 54°58' E 013°35'1313.4
2014-Jul-25 06:33N 55°02' E 013°57'1313.2
2014-Jul-25 05:33N 55°11' E 014°14'1413.6
2014-Jul-25 04:33N 55°21' E 014°30'1313.4
2014-Jul-25 03:33N 55°30' E 014°48'1313.5
2014-Jul-25 02:33N 55°37' E 015°08'1413.6
2014-Jul-25 01:33N 55°43' E 015°29'1413.6
2014-Jul-25 00:33N 55°50' E 015°50'1413.8
2014-Jul-24 23:34N 55°57' E 016°12'1413.7
2014-Jul-24 22:34N 56°04' E 016°33'1413.6
2014-Jul-24 21:33N 56°12' E 016°53'1413.5
2014-Jul-24 20:33N 56°20' E 017°12'1413.4
2014-Jul-24 19:32N 56°28' E 017°32'1313.4
2014-Jul-24 18:33N 56°36' E 017°51'1313.5
2014-Jul-24 17:33N 56°44' E 018°10'1313.4
2014-Jul-24 16:33N 56°53' E 018°29'1413.5
2014-Jul-24 15:34N 57°04' E 018°45'1413.6
2014-Jul-24 14:33N 57°14' E 019°00'1413.6
2014-Jul-24 13:33N 57°25' E 019°16'1413.4
2014-Jul-24 12:33N 57°35' E 019°32'1313.4
2014-Jul-24 11:33N 57°46' E 019°48'9713.6
2014-Jul-24 04:24N 59°05' E 021°34'1413.1
2014-Jul-24 03:21N 59°15' E 021°53'3913.0
2014-Jul-24 00:23N 59°34' E 022°58'1213.8
2014-Jul-23 23:30N 59°38' E 023°21'1413.6
2014-Jul-23 22:30N 59°41' E 023°47'7813.0
2014-Jul-23 16:27N 60°06' E 026°16'1112.4
2014-Jul-23 15:33N 60°15' E 026°28'1212.5
2014-Jul-23 14:33N 60°23' E 026°48'5 4.6
2014-Jul-23 13:33N 60°26' E 026°55'0 0.0
2014-Jul-23 12:33N 60°26' E 026°55'0 0.0
2014-Jul-23 11:32N 60°26' E 026°55'0 0.0
2014-Jul-23 10:32N 60°26' E 026°55'0 0.0
2014-Jul-23 09:32N 60°26' E 026°55'0 0.0
2014-Jul-23 08:31N 60°26' E 026°55'0 0.0
2014-Jul-23 07:31N 60°26' E 026°55'0 0.0
2014-Jul-23 06:33N 60°26' E 026°55'0 0.0
2014-Jul-23 05:33N 60°26' E 026°55'0 0.0
2014-Jul-23 04:32N 60°26' E 026°55'0 0.0
2014-Jul-23 03:32N 60°26' E 026°55'0 0.0
2014-Jul-23 02:32N 60°26' E 026°55'0 0.0
2014-Jul-23 01:31N 60°26' E 026°55'0 0.0
2014-Jul-23 00:31N 60°26' E 026°55'0 0.0
2014-Jul-22 23:33N 60°26' E 026°55'0 0.0
2014-Jul-22 22:33N 60°26' E 026°55'0 0.0
2014-Jul-22 21:32N 60°26' E 026°55'0 0.0
2014-Jul-22 20:32N 60°26' E 026°55'0 0.0
2014-Jul-22 19:32N 60°26' E 026°55'0 0.0
2014-Jul-22 18:31N 60°26' E 026°55'0 0.0
2014-Jul-22 17:31N 60°26' E 026°55'0 0.0
2014-Jul-22 16:33N 60°26' E 026°55'0 0.0
2014-Jul-22 15:33N 60°26' E 026°55'0 0.0
2014-Jul-22 14:32N 60°26' E 026°55'0 0.0
2014-Jul-22 13:32N 60°26' E 026°55'0 0.0
2014-Jul-22 12:32N 60°26' E 026°55'0 0.0
2014-Jul-22 11:31N 60°26' E 026°55'0 0.0
2014-Jul-22 10:31N 60°26' E 026°55'0 0.0
2014-Jul-22 09:33N 60°26' E 026°55'0 0.0
2014-Jul-22 08:30N 60°26' E 026°55'0 0.0
2014-Jul-22 07:32N 60°26' E 026°55'0 0.0
2014-Jul-22 06:32N 60°26' E 026°55'0 0.0
2014-Jul-22 05:28N 60°26' E 026°55'0 0.0
2014-Jul-22 04:31N 60°26' E 026°55'0 0.0
2014-Jul-22 03:31N 60°26' E 026°55'0 0.0
2014-Jul-22 02:33N 60°26' E 026°55'0 0.0
2014-Jul-22 01:33N 60°26' E 026°55'0 0.0
2014-Jul-22 00:32N 60°26' E 026°55'0 0.0
2014-Jul-21 23:32N 60°26' E 026°55'5 4.9
2014-Jul-21 22:34N 60°23' E 026°47'1414.1
2014-Jul-21 21:33N 60°14' E 026°25'2313.4
2014-Jul-21 19:51N 59°54' E 026°03'6614.3
2014-Jul-21 15:14N 59°38' E 023°55'2313.9
2014-Jul-21 13:33N 59°31' E 023°12'1513.8
2014-Jul-21 12:30N 59°26' E 022°44'1313.9
2014-Jul-21 11:33N 59°22' E 022°20'1813.9
2014-Jul-21 10:16N 59°26' E 021°46'1014.0
2014-Jul-21 09:34N 59°30' E 021°28'1814.1
2014-Jul-21 08:15N 59°36' E 020°53'1014.0
2014-Jul-21 07:33N 59°39' E 020°35'  

Dump ship's entire track history